Jamesport, MO

6:25 AM CDT on August 01, 2014 (GMT -0500)
Big Rock (KMOTRENT5) Elev 814 ft | 40.06 °N, 93.64 °W | Change Station

Current weather conditions updated 3 minutes ago

Mostly Cloudy
Mostly Cloudy
63.9 °F
Feels Like 63.9 °F
N
0.0
Wind Variable Wind from West

Today is forecast to be Much Cooler than yesterday.

Today
High -- | Low -- °F
--% Chance of Precip.
Yesterday
High -- | Low -- °F
Precip. -- in
6:13 AM 8:28 PM
Waxing Crescent, 25% visible
Pressure 30.07 in
Visibility 10.0 miles
Clouds Mostly Cloudy 12000 ft
Dew Point 62 °F
Humidity 92%
Rainfall 0.00 in
Snow Depth Not available.
UV 0 out of 12
Pollen 6.50 out of 12
Air Quality Not available.
Flu Activity Not available.
METAR KLWD 011053Z AUTO 30005KT 10SM BKN120 18/15 A3009 RMK AO2 SLP181 T01780150

More Conditions Fewer Conditions

Pressure 30.07 in
Visibility 10.0 miles
Clouds Mostly Cloudy 12000 ft
Dew Point 62 °F
Humidity 92%
Rainfall 0.00 in
Snow Depth Not available.
UV 0 out of 12
Pollen 6.50 out of 12
Air Quality Not available.
Flu Activity Not available.
METAR KLWD 011053Z AUTO 30005KT 10SM BKN120 18/15 A3009 RMK AO2 SLP181 T01780150

More Conditions Fewer Conditions

10-Day Weather Forecast

Almanac

Astronomy

Aug. 01, 2014 Rise Set
Actual Time 6:13 AM CDT 8:28 PM CDT
Civil Twilight 5:43 AM CDT 8:59 PM CDT
Nautical Twilight 5:05 AM CDT 9:36 PM CDT
Astronomical Twilight 4:24 AM CDT 10:16 PM CDT
Moon 11:38 AM CDT 11:13 PM CDT
Length of Visible Light 15h 15m
Length of Day
14h 15m
Tomorrow will be 2m 0s shorter.
Waxing Crescent, 25% of the Moon is Illuminated
Today
Waxing Crescent
Aug 3
First Quarter
Aug 10
Full
Aug 17
Last Quarter
Aug 25
New

Today's Extremes

State Highs State Lows

Community

WunderPhotos

Upload Photos

1,739,538 photos uploaded!

Nearby

Snow Depth

Station Depth Elevation
No new snow has been reported.

Earthquake Activity

City Distance Mag. Time & Date
No recent earthquake activity has been reported nearby.
Minimum magnitude displayed is 2.5.

Coastal Water Temperatures

Place Temperature
No Stations Reporting

Nearby Weather Stations

Station Location Temp. Dew Point Humidity Wind Precip. Elev Updated Type
MesoWest COBURN , Jamesport, MO 63 °F - - North  at  - 0.00 in / hr 901 ft 3:25 AM CDT MADIS
Big Rock, Trenton, MO 63.9 °F 62 °F 92% West  at  0.0 mph - / hr 814 ft 6:21 AM CDT Normal
trenton mo, Trenton, MO 64.9 °F 61 °F 87% SSW  at  2.3 mph 0.00 in / hr 850 ft 6:25 AM CDT Rapid Fire
Northwest Chillicothe, Chillicothe, MO 66.1 °F 58 °F 74% ENE  at  0.0 mph 0.00 in / hr 843 ft 6:25 AM CDT Rapid Fire
MesoWest SPICKARD , Gilman City, MO 65 °F 58 °F 78% NNW  at  3 mph 0.00 in / hr 911 ft 5:00 AM CDT MADIS
MesoWest NETTLE , Hamilton, MO 71 °F - - North  at  - 0.00 in / hr 772 ft 3:55 AM CDT MADIS

Show More Stations Show Fewer Stations